createdAt,value
2022-11-23T00:01:14.769Z,90.67
2022-11-23T00:03:43.120Z,90.62
2022-11-23T00:06:11.454Z,90.52
2022-11-23T00:08:39.846Z,90.67
2022-11-23T00:11:08.232Z,90.40
2022-11-23T00:13:36.971Z,90.42
2022-11-23T00:16:07.154Z,90.17
2022-11-23T00:18:36.939Z,90.54
2022-11-23T00:21:09.600Z,91.15
2022-11-23T00:23:38.023Z,91.59
2022-11-23T00:26:07.507Z,91.93
2022-11-23T00:28:40.701Z,91.57
2022-11-23T00:31:11.442Z,91.90
2022-11-23T00:33:41.548Z,91.78
2022-11-23T00:36:13.418Z,91.43
2022-11-23T00:38:42.345Z,91.92
2022-11-23T00:41:12.549Z,91.53
2022-11-23T00:43:42.487Z,91.55
2022-11-23T00:46:15.460Z,91.57
2022-11-23T00:48:45.761Z,91.49
2022-11-23T00:51:16.624Z,91.59
2022-11-23T00:53:45.574Z,91.34
2022-11-23T00:56:14.448Z,91.18
2022-11-23T00:58:42.857Z,91.17
2022-11-23T01:01:15.941Z,90.85
2022-11-23T01:03:47.890Z,91.34
2022-11-23T01:06:17.917Z,91.27
2022-11-23T01:08:50.641Z,91.02
2022-11-23T01:11:19.224Z,91.28
2022-11-23T01:13:47.858Z,91.11
2022-11-23T01:16:23.575Z,91.14
2022-11-23T01:18:55.438Z,91.11
2022-11-23T01:21:25.647Z,91.30
2022-11-23T01:23:54.153Z,91.37
2022-11-23T01:26:22.805Z,91.31
2022-11-23T01:28:51.580Z,91.09
2022-11-23T01:31:21.484Z,91.86
2022-11-23T01:33:55.401Z,91.93
2022-11-23T01:36:24.722Z,92.12
2022-11-23T01:38:53.077Z,91.80
2022-11-23T01:41:27.193Z,91.97
2022-11-23T01:43:55.917Z,91.71
2022-11-23T01:46:24.300Z,91.63
2022-11-23T01:48:56.835Z,91.92
2022-11-23T01:51:28.753Z,92.27
2022-11-23T01:54:00.762Z,91.93
2022-11-23T01:56:32.209Z,91.90
2022-11-23T01:59:02.358Z,92.06
2022-11-23T02:01:30.797Z,92.37
2022-11-23T02:04:02.546Z,91.84
2022-11-23T02:06:31.663Z,92.15
2022-11-23T02:09:03.532Z,92.42
2022-11-23T02:11:31.919Z,92.19
2022-11-23T02:14:00.401Z,92.22
2022-11-23T02:16:31.673Z,92.19
2022-11-23T02:19:01.588Z,91.92
2022-11-23T02:21:29.998Z,91.93
2022-11-23T02:24:03.129Z,91.88
2022-11-23T02:26:34.705Z,92.10
2022-11-23T02:29:07.665Z,92.38
2022-11-23T02:31:36.198Z,91.78
2022-11-23T02:34:04.628Z,91.47
2022-11-23T02:36:39.218Z,91.21
2022-11-23T02:39:11.262Z,91.85
2022-11-23T02:41:44.190Z,91.91
2022-11-23T02:44:23.530Z,91.69
2022-11-23T02:46:52.290Z,91.79
2022-11-23T02:49:20.745Z,91.56
2022-11-23T02:51:51.240Z,91.37
2022-11-23T02:54:19.621Z,91.36
2022-11-23T02:56:49.315Z,91.60
2022-11-23T02:59:19.199Z,91.28
2022-11-23T03:01:47.809Z,91.49
2022-11-23T03:04:16.275Z,91.86
2022-11-23T03:06:46.227Z,92.26
2022-11-23T03:09:14.939Z,91.73
2022-11-23T03:11:43.500Z,91.69
2022-11-23T03:14:13.492Z,92.13
2022-11-23T03:16:50.977Z,92.08
2022-11-23T03:19:20.515Z,92.76
2022-11-23T03:21:50.149Z,92.83
2022-11-23T03:24:18.543Z,92.63
2022-11-23T03:26:48.383Z,92.89
2022-11-23T03:29:26.357Z,92.24
2022-11-23T03:31:56.084Z,92.42
2022-11-23T03:34:24.789Z,92.20
2022-11-23T03:36:53.314Z,92.42
2022-11-23T03:39:21.992Z,92.74
2022-11-23T03:42:08.569Z,93.22
2022-11-23T03:44:38.852Z,93.16
2022-11-23T03:47:07.218Z,92.99
2022-11-23T03:49:37.189Z,92.84
2022-11-23T03:52:06.167Z,92.58
2022-11-23T03:54:34.469Z,92.58
2022-11-23T03:57:02.839Z,92.52
2022-11-23T03:59:31.477Z,92.29
2022-11-23T04:02:01.382Z,92.72
2022-11-23T04:04:34.634Z,92.70
2022-11-23T04:07:10.374Z,93.12
2022-11-23T04:09:52.184Z,92.78
2022-11-23T04:12:52.510Z,92.78
2022-11-23T04:15:20.815Z,92.81
2022-11-23T04:17:50.529Z,93.11
2022-11-23T04:20:19.054Z,93.00
2022-11-23T04:22:47.389Z,92.87
2022-11-23T04:25:16.274Z,93.40
2022-11-23T04:27:44.592Z,93.42
2022-11-23T04:30:14.201Z,93.07
2022-11-23T04:32:42.565Z,93.73
2022-11-23T04:35:12.889Z,93.31
2022-11-23T04:37:43.360Z,93.55
2022-11-23T04:40:13.460Z,93.55
2022-11-23T04:42:45.385Z,93.28
2022-11-23T04:45:13.867Z,93.41
2022-11-23T04:47:42.909Z,93.49
2022-11-23T04:50:17.081Z,93.41
2022-11-23T04:52:50.667Z,93.08
2022-11-23T04:55:23.502Z,93.30
2022-11-23T04:57:58.419Z,93.41
2022-11-23T05:00:30.608Z,93.36
2022-11-23T05:03:01.408Z,93.37
2022-11-23T05:05:34.443Z,93.41
2022-11-23T05:08:04.302Z,93.38
2022-11-23T05:10:53.801Z,93.82
2022-11-23T05:13:22.089Z,93.60
2022-11-23T05:15:51.634Z,93.92
2022-11-23T05:18:26.130Z,93.73
2022-11-23T05:20:56.454Z,93.34
2022-11-23T05:23:24.741Z,93.67
2022-11-23T05:25:55.033Z,93.74
2022-11-23T05:28:39.791Z,93.46
2022-11-23T05:31:10.595Z,93.42
2022-11-23T05:33:38.951Z,93.53
2022-11-23T05:36:14.010Z,93.20
2022-11-23T05:38:43.574Z,93.20
2022-11-23T05:41:20.972Z,93.72
2022-11-23T05:43:52.297Z,93.34
2022-11-23T05:46:25.265Z,93.18
2022-11-23T05:48:53.692Z,93.15
2022-11-23T05:51:23.460Z,93.00
2022-11-23T05:53:52.405Z,93.34
2022-11-23T05:56:40.319Z,93.37
2022-11-23T05:59:21.175Z,93.42
2022-11-23T06:01:54.413Z,93.24
2022-11-23T06:04:31.085Z,93.47
2022-11-23T06:07:02.084Z,92.98
2022-11-23T06:09:44.809Z,92.84
2022-11-23T06:12:13.565Z,92.99
2022-11-23T06:14:41.876Z,92.93
2022-11-23T06:17:10.264Z,93.09
2022-11-23T06:19:44.013Z,92.73
2022-11-23T06:22:15.623Z,92.71
2022-11-23T06:24:55.960Z,92.56
2022-11-23T06:27:41.529Z,92.53
2022-11-23T06:30:17.685Z,92.75
2022-11-23T06:32:46.430Z,92.54
2022-11-23T06:35:15.258Z,93.00
2022-11-23T06:37:46.772Z,93.09
2022-11-23T06:40:15.107Z,92.58
2022-11-23T06:42:44.495Z,92.85
2022-11-23T06:45:19.489Z,92.89
2022-11-23T06:47:50.062Z,92.85
2022-11-23T06:50:18.947Z,92.74
2022-11-23T06:52:50.229Z,92.32
2022-11-23T06:55:19.711Z,92.06
2022-11-23T06:57:48.394Z,92.18
2022-11-23T07:00:17.743Z,92.33
2022-11-23T07:02:50.438Z,92.14
2022-11-23T07:05:19.214Z,92.15
2022-11-23T07:07:49.755Z,91.86
2022-11-23T07:10:25.871Z,92.33
2022-11-23T07:13:05.820Z,91.63
2022-11-23T07:15:35.131Z,91.88
2022-11-23T07:18:03.641Z,92.02
2022-11-23T07:20:33.043Z,92.01
2022-11-23T07:23:03.385Z,92.04
2022-11-23T07:25:32.609Z,91.90
2022-11-23T07:28:02.741Z,91.94
2022-11-23T07:30:32.424Z,91.96
2022-11-23T07:33:02.687Z,92.06
2022-11-23T07:35:32.885Z,92.31
2022-11-23T07:38:02.759Z,92.14
2022-11-23T07:40:31.107Z,92.29
2022-11-23T07:43:02.858Z,91.98
2022-11-23T07:45:31.754Z,91.92
2022-11-23T07:48:01.953Z,92.39
2022-11-23T07:50:30.739Z,92.45
2022-11-23T07:52:59.033Z,92.32
2022-11-23T07:55:28.738Z,92.43
2022-11-23T07:57:57.031Z,92.37
2022-11-23T08:00:26.470Z,91.35
2022-11-23T08:03:25.561Z,91.79
2022-11-23T08:05:43.216Z,91.88
2022-11-23T08:08:11.984Z,91.88
2022-11-23T08:10:46.066Z,92.40
2022-11-23T08:13:15.666Z,92.00
2022-11-23T08:15:45.653Z,91.78
2022-11-23T08:18:17.146Z,91.78
2022-11-23T08:20:45.457Z,92.22
2022-11-23T08:23:13.753Z,91.80
2022-11-23T08:25:43.501Z,91.69
2022-11-23T08:28:12.070Z,91.72
2022-11-23T08:30:40.598Z,91.50
2022-11-23T08:33:09.826Z,91.84
2022-11-23T08:35:39.382Z,91.46
2022-11-23T08:38:10.313Z,91.94
2022-11-23T08:40:39.167Z,91.74
2022-11-23T08:43:11.397Z,91.37
2022-11-23T08:45:39.709Z,91.61
2022-11-23T08:48:08.911Z,91.25
2022-11-23T08:50:37.535Z,91.15
2022-11-23T08:53:06.020Z,91.25
2022-11-23T08:55:34.339Z,90.84
2022-11-23T08:58:02.637Z,90.97
2022-11-23T09:00:32.606Z,90.76
2022-11-23T09:03:01.059Z,90.03
2022-11-23T09:05:30.934Z,90.05
2022-11-23T09:08:01.409Z,89.96
2022-11-23T09:10:30.083Z,90.03
2022-11-23T09:12:58.985Z,89.77
2022-11-23T09:15:27.318Z,89.27
2022-11-23T09:17:57.848Z,89.38
2022-11-23T09:20:26.275Z,89.55
2022-11-23T09:22:56.074Z,89.61
2022-11-23T09:25:24.563Z,89.70
2022-11-23T09:27:58.625Z,89.56
2022-11-23T09:30:27.355Z,89.84
2022-11-23T09:32:58.411Z,89.66
2022-11-23T09:35:26.918Z,89.81
2022-11-23T09:37:58.597Z,90.09
2022-11-23T09:40:30.325Z,90.01
2022-11-23T09:43:26.445Z,90.17
2022-11-23T09:45:55.943Z,89.55
2022-11-23T09:48:43.655Z,89.77
2022-11-23T09:51:17.333Z,90.37
2022-11-23T09:53:48.537Z,89.72
2022-11-23T09:56:20.086Z,89.57
2022-11-23T09:58:48.714Z,89.82
2022-11-23T10:01:17.525Z,89.83
2022-11-23T10:03:49.343Z,89.67
2022-11-23T10:06:20.674Z,89.36
2022-11-23T10:08:59.146Z,89.41
2022-11-23T10:12:06.022Z,90.00
2022-11-23T10:14:47.084Z,90.27
2022-11-23T10:17:22.169Z,90.45
2022-11-23T10:20:02.518Z,90.90
2022-11-23T10:22:37.179Z,90.74
2022-11-23T10:25:15.826Z,91.41
2022-11-23T10:27:45.998Z,91.12
2022-11-23T10:30:15.899Z,90.91
2022-11-23T10:32:48.512Z,91.10
2022-11-23T10:35:20.265Z,91.21
2022-11-23T10:37:50.467Z,91.33
2022-11-23T10:40:24.702Z,91.23
2022-11-23T10:42:55.878Z,91.49
2022-11-23T10:45:26.377Z,91.64
2022-11-23T10:47:56.189Z,91.28
2022-11-23T10:50:30.080Z,91.73
2022-11-23T10:53:00.940Z,91.04
2022-11-23T10:55:31.143Z,90.86
2022-11-23T10:57:59.744Z,90.94
2022-11-23T11:00:31.280Z,90.71
2022-11-23T11:03:00.633Z,90.70
2022-11-23T11:06:07.586Z,90.78
2022-11-23T11:08:22.676Z,91.10
2022-11-23T11:10:52.171Z,90.90
2022-11-23T11:13:31.073Z,90.84
2022-11-23T11:16:00.965Z,90.82
2022-11-23T11:18:31.841Z,90.73
2022-11-23T11:21:04.506Z,90.89
2022-11-23T11:23:33.243Z,90.36
2022-11-23T11:26:07.455Z,90.30
2022-11-23T11:28:38.230Z,90.38
2022-11-23T11:31:20.668Z,90.03
2022-11-23T11:33:53.807Z,90.95
2022-11-23T11:36:23.775Z,90.92
2022-11-23T11:39:17.077Z,90.94
2022-11-23T11:41:44.470Z,90.79
2022-11-23T11:44:18.605Z,90.44
2022-11-23T11:46:50.508Z,90.94
2022-11-23T11:49:23.019Z,90.66
2022-11-23T11:51:55.989Z,91.42
2022-11-23T11:54:29.521Z,90.64
2022-11-23T11:57:02.155Z,90.98
2022-11-23T11:59:32.250Z,91.09
2022-11-23T12:02:08.834Z,91.49
2022-11-23T12:04:41.638Z,90.69
2022-11-23T12:07:15.405Z,90.60
2022-11-23T12:09:46.310Z,90.76
2022-11-23T12:12:17.459Z,90.45
2022-11-23T12:14:47.067Z,90.77
2022-11-23T12:17:33.839Z,91.18
2022-11-23T12:20:09.062Z,90.80
2022-11-23T12:22:46.157Z,91.18
2022-11-23T12:25:22.415Z,91.30
2022-11-23T12:28:00.661Z,90.72
2022-11-23T12:30:36.239Z,90.21
2022-11-23T12:33:22.352Z,90.86
2022-11-23T12:36:01.272Z,90.20
2022-11-23T12:38:37.265Z,90.48
2022-11-23T12:41:16.571Z,90.10
2022-11-23T12:43:54.078Z,90.33
2022-11-23T12:46:27.555Z,90.53
2022-11-23T12:49:07.737Z,90.83
2022-11-23T12:51:40.733Z,90.86
2022-11-23T12:54:22.519Z,91.04
2022-11-23T12:57:08.081Z,90.93
2022-11-23T12:59:43.649Z,91.41
2022-11-23T13:02:18.606Z,91.35
2022-11-23T13:05:08.363Z,91.35
2022-11-23T13:07:50.352Z,91.23
2022-11-23T13:10:44.457Z,91.66
2022-11-23T13:13:28.078Z,91.74
2022-11-23T13:16:15.451Z,91.71
2022-11-23T13:18:58.933Z,91.89
2022-11-23T13:21:36.286Z,91.82
2022-11-23T13:24:05.020Z,91.51
2022-11-23T13:26:34.703Z,92.16
2022-11-23T13:29:37.866Z,91.72
2022-11-23T13:32:36.305Z,91.78
2022-11-23T13:35:04.959Z,91.98
2022-11-23T13:38:08.101Z,91.93
2022-11-23T13:40:37.754Z,91.82
2022-11-23T13:43:17.431Z,92.51
2022-11-23T13:45:46.295Z,92.82
2022-11-23T13:48:48.924Z,92.72
2022-11-23T13:51:07.243Z,92.73
2022-11-23T13:53:36.537Z,92.99
2022-11-23T13:56:36.995Z,93.13
2022-11-23T13:59:32.413Z,93.46
2022-11-23T14:02:30.514Z,93.22
2022-11-23T14:05:35.710Z,93.02
2022-11-23T14:08:05.276Z,93.12
2022-11-23T14:10:33.885Z,93.58
2022-11-23T14:13:05.722Z,93.40
2022-11-23T14:15:37.098Z,93.65
2022-11-23T14:18:17.754Z,93.05
2022-11-23T14:21:03.179Z,93.47
2022-11-23T14:24:11.207Z,92.89
2022-11-23T14:26:49.410Z,93.18
2022-11-23T14:29:30.475Z,93.38
2022-11-23T14:32:13.880Z,93.62
2022-11-23T14:34:51.257Z,93.23
2022-11-23T14:37:27.190Z,92.68
2022-11-23T14:40:19.169Z,92.69
2022-11-23T14:42:53.545Z,92.67
2022-11-23T14:45:23.113Z,92.39
2022-11-23T14:47:52.978Z,92.59
2022-11-23T14:50:26.135Z,92.49
2022-11-23T14:52:55.375Z,92.69
2022-11-23T14:55:25.277Z,92.78
2022-11-23T14:57:56.875Z,92.54
2022-11-23T15:00:31.965Z,92.89
2022-11-23T15:03:42.119Z,92.77
2022-11-23T15:06:02.956Z,92.23
2022-11-23T15:08:33.329Z,91.60
2022-11-23T15:11:04.505Z,91.25
2022-11-23T15:13:46.986Z,91.54
2022-11-23T15:16:17.146Z,91.36
2022-11-23T15:18:47.566Z,91.64
2022-11-23T15:21:26.634Z,92.26
2022-11-23T15:23:57.556Z,91.99
2022-11-23T15:26:47.587Z,92.13
2022-11-23T15:29:34.488Z,91.77
2022-11-23T15:34:55.359Z,91.47
2022-11-23T15:37:24.356Z,91.46
2022-11-23T15:39:53.918Z,91.31
2022-11-23T15:42:33.917Z,91.25
2022-11-23T15:45:02.306Z,90.91
2022-11-23T15:47:32.175Z,90.40
2022-11-23T15:50:04.123Z,89.91
2022-11-23T15:52:36.008Z,90.41
2022-11-23T15:55:09.727Z,90.63
2022-11-23T15:57:39.658Z,90.73
2022-11-23T16:00:10.275Z,90.98
2022-11-23T16:02:41.731Z,91.54
2022-11-23T16:05:15.922Z,91.41
2022-11-23T16:07:54.910Z,91.94
2022-11-23T16:10:25.997Z,92.03
2022-11-23T16:12:55.490Z,92.25
2022-11-23T16:15:44.187Z,91.50
2022-11-23T16:18:24.900Z,91.95
2022-11-23T16:20:56.482Z,91.38
2022-11-23T16:23:26.972Z,91.92
2022-11-23T16:25:56.961Z,92.28
2022-11-23T16:28:29.744Z,92.15
2022-11-23T16:30:58.686Z,91.78
2022-11-23T16:33:27.169Z,91.99
2022-11-23T16:35:56.926Z,91.87
2022-11-23T16:38:28.512Z,91.52
2022-11-23T16:40:57.172Z,91.65
2022-11-23T16:43:25.594Z,91.64
2022-11-23T16:45:53.993Z,91.98
2022-11-23T16:48:46.298Z,91.93
2022-11-23T16:51:16.184Z,91.68
2022-11-23T16:56:34.177Z,91.94
2022-11-23T16:59:02.576Z,91.74
2022-11-23T17:01:32.689Z,91.73
2022-11-23T17:04:01.218Z,91.68
2022-11-23T17:06:31.092Z,91.64
2022-11-23T17:09:06.412Z,91.47
2022-11-23T17:11:39.555Z,91.68
2022-11-23T17:14:08.180Z,92.34
2022-11-23T17:16:36.654Z,92.00
2022-11-23T17:19:05.164Z,92.18
2022-11-23T17:21:34.828Z,92.06
2022-11-23T17:24:04.048Z,92.08
2022-11-23T17:26:34.964Z,91.78
2022-11-23T17:29:04.910Z,91.95
2022-11-23T17:31:33.349Z,91.99
2022-11-23T17:34:02.405Z,92.33
2022-11-23T17:36:31.476Z,91.50
2022-11-23T17:39:01.210Z,91.87
2022-11-23T17:41:29.604Z,92.07
2022-11-23T17:43:59.446Z,91.89
2022-11-23T17:46:28.406Z,92.09
2022-11-23T17:48:58.363Z,92.28
2022-11-23T17:51:28.366Z,92.48
2022-11-23T17:53:57.007Z,92.37
2022-11-23T17:56:26.935Z,92.35
2022-11-23T17:58:55.291Z,92.26
2022-11-23T18:01:24.116Z,91.89
2022-11-23T18:03:52.601Z,92.17
2022-11-23T18:06:22.088Z,92.32
2022-11-23T18:08:51.165Z,91.55
2022-11-23T18:11:19.946Z,91.64
2022-11-23T18:13:50.683Z,91.90
2022-11-23T18:16:20.535Z,91.79
2022-11-23T18:18:49.203Z,91.69
2022-11-23T18:21:17.820Z,91.13
2022-11-23T18:23:46.166Z,91.29
2022-11-23T18:26:17.546Z,91.26
2022-11-23T18:28:45.934Z,91.09
2022-11-23T18:31:17.267Z,90.95
2022-11-23T18:33:46.009Z,90.53
2022-11-23T18:36:14.838Z,90.76
2022-11-23T18:38:44.991Z,90.94
2022-11-23T18:41:13.772Z,90.86
2022-11-23T18:43:42.115Z,90.42
2022-11-23T18:46:11.558Z,90.63
2022-11-23T18:48:41.416Z,90.98
2022-11-23T18:51:11.916Z,91.09
2022-11-23T18:53:41.256Z,91.04
2022-11-23T18:56:10.620Z,91.36
2022-11-23T18:58:40.774Z,91.11
2022-11-23T19:01:12.672Z,91.71
2022-11-23T19:03:43.449Z,91.68
2022-11-23T19:06:17.225Z,91.25
2022-11-23T19:08:46.897Z,91.39
2022-11-23T19:11:18.044Z,91.84
2022-11-23T19:13:48.214Z,91.51
2022-11-23T19:16:18.097Z,91.02
2022-11-23T19:18:47.912Z,91.17
2022-11-23T19:21:17.568Z,90.73
2022-11-23T19:23:49.194Z,90.18
2022-11-23T19:26:17.596Z,88.84
2022-11-23T19:28:46.095Z,89.11
2022-11-23T19:31:15.856Z,89.15
2022-11-23T19:33:44.728Z,89.07
2022-11-23T19:36:15.930Z,89.17
2022-11-23T19:38:44.596Z,89.41
2022-11-23T19:41:13.327Z,89.49
2022-11-23T19:43:42.921Z,89.84
2022-11-23T19:46:13.982Z,89.79
2022-11-23T19:48:42.454Z,89.79
2022-11-23T19:51:14.773Z,90.10
2022-11-23T19:53:43.964Z,90.28
2022-11-23T19:56:13.731Z,90.30
2022-11-23T19:58:42.894Z,90.23
2022-11-23T20:01:12.880Z,89.99
2022-11-23T20:03:42.671Z,90.32
2022-11-23T20:06:15.975Z,90.04
2022-11-23T20:08:45.123Z,90.61
2022-11-23T20:11:15.369Z,90.13
2022-11-23T20:13:44.682Z,89.94
2022-11-23T20:16:14.747Z,89.25
2022-11-23T20:18:43.822Z,89.56
2022-11-23T20:21:13.124Z,89.67
2022-11-23T20:23:43.920Z,89.27
2022-11-23T20:26:14.863Z,89.70
2022-11-23T20:28:43.412Z,89.46
2022-11-23T20:31:20.009Z,89.14
2022-11-23T20:33:50.519Z,89.08
2022-11-23T20:36:20.537Z,88.60
2022-11-23T20:38:50.777Z,88.74
2022-11-23T20:41:21.516Z,87.93
2022-11-23T20:43:50.833Z,87.83
2022-11-23T20:46:38.174Z,88.43
2022-11-23T20:49:07.713Z,88.69
2022-11-23T20:51:36.424Z,89.07
2022-11-23T20:54:06.359Z,89.48
2022-11-23T20:56:34.704Z,89.46
2022-11-23T20:59:04.836Z,89.43
2022-11-23T21:01:33.445Z,88.84
2022-11-23T21:04:01.789Z,89.27
2022-11-23T21:06:34.437Z,89.53
2022-11-23T21:09:07.048Z,89.41
2022-11-23T21:11:52.733Z,88.85
2022-11-23T21:14:23.302Z,88.01
2022-11-23T21:16:55.356Z,87.43
2022-11-23T21:19:25.060Z,87.50
2022-11-23T21:21:53.796Z,87.64
2022-11-23T21:24:23.720Z,87.38
2022-11-23T21:26:52.250Z,87.74
2022-11-23T21:29:20.718Z,87.26
2022-11-23T21:31:49.957Z,87.60
2022-11-23T21:34:20.244Z,87.57
2022-11-23T21:36:49.327Z,87.34
2022-11-23T21:39:18.331Z,86.92
2022-11-23T21:41:50.830Z,85.61
2022-11-23T21:44:19.336Z,85.07
2022-11-23T21:46:47.775Z,84.94
2022-11-23T21:49:16.193Z,85.20
2022-11-23T21:51:45.748Z,85.36
2022-11-23T21:54:16.002Z,85.66
2022-11-23T21:56:45.404Z,85.52
2022-11-23T21:59:15.265Z,85.64
2022-11-23T22:01:43.874Z,85.55
2022-11-23T22:04:13.417Z,86.20
2022-11-23T22:06:44.525Z,86.24
2022-11-23T22:09:13.416Z,86.28
2022-11-23T22:11:43.260Z,85.96
2022-11-23T22:14:12.974Z,86.44
2022-11-23T22:16:44.190Z,85.98
2022-11-23T22:19:13.724Z,86.07
2022-11-23T22:21:43.042Z,85.64
2022-11-23T22:24:13.571Z,85.56
2022-11-23T22:26:42.017Z,85.78
2022-11-23T22:29:10.979Z,86.15
2022-11-23T22:31:39.906Z,86.32
2022-11-23T22:34:12.457Z,86.79
2022-11-23T22:36:41.323Z,86.72
2022-11-23T22:39:10.067Z,86.95
2022-11-23T22:41:39.021Z,87.50
2022-11-23T22:44:09.041Z,87.71
2022-11-23T22:46:37.869Z,87.35
2022-11-23T22:49:06.540Z,87.44
2022-11-23T22:51:36.329Z,87.39
2022-11-23T22:54:05.219Z,87.74
2022-11-23T22:56:33.599Z,88.27
2022-11-23T22:59:02.032Z,88.35
2022-11-23T23:01:31.872Z,88.45
2022-11-23T23:04:02.520Z,87.93
2022-11-23T23:06:33.785Z,87.51
2022-11-23T23:09:05.120Z,87.45
2022-11-23T23:11:34.564Z,87.37
2022-11-23T23:14:03.128Z,86.02
2022-11-23T23:16:31.624Z,86.17
2022-11-23T23:19:00.626Z,85.75
2022-11-23T23:21:30.323Z,85.45
2022-11-23T23:24:00.449Z,85.83
2022-11-23T23:26:30.563Z,85.96
2022-11-23T23:29:00.483Z,85.83
2022-11-23T23:31:30.056Z,85.43
2022-11-23T23:33:59.772Z,85.24
2022-11-23T23:36:28.228Z,84.83
2022-11-23T23:38:57.753Z,84.00
2022-11-23T23:41:26.146Z,83.61
2022-11-23T23:43:55.974Z,83.84
2022-11-23T23:46:24.317Z,83.32
2022-11-23T23:48:52.933Z,83.51
2022-11-23T23:51:22.913Z,83.69
2022-11-23T23:53:52.143Z,83.51
2022-11-23T23:56:22.165Z,84.03
2022-11-23T23:58:50.712Z,84.06
